createdAt,value
2017-07-24T07:35:13.622Z,100555.84
2017-07-24T11:29:13.504Z,100520.47
2017-07-24T11:31:23.467Z,100513.58
2017-07-24T11:33:36.405Z,100515.67
2017-07-24T11:35:44.161Z,100509.83
2017-07-24T11:37:54.475Z,100515.53
2017-07-24T11:40:07.678Z,100519.16
2017-07-24T11:42:14.354Z,100517.58
2017-07-24T11:44:22.711Z,100515.44
2017-07-24T11:46:31.841Z,100513.42
2017-07-24T11:48:39.327Z,100514.16
2017-07-24T11:50:54.103Z,100513.63
2017-07-24T11:53:02.219Z,100516.35
2017-07-24T11:55:11.275Z,100520.42
2017-07-24T11:57:21.370Z,100523.78
2017-07-24T11:59:27.833Z,100517.84
2017-07-24T12:01:36.662Z,100517.81
2017-07-24T12:03:44.453Z,100517.47
2017-07-24T12:05:55.368Z,100520.39
2017-07-24T12:08:04.125Z,100525.30
2017-07-24T12:10:10.515Z,100528.13
2017-07-24T12:12:19.919Z,100529.14
2017-07-24T12:14:30.183Z,100531.65
2017-07-24T12:16:41.225Z,100519.61
2017-07-24T12:18:52.735Z,100520.69
2017-07-24T12:21:00.007Z,100519.53
2017-07-24T12:23:11.167Z,100520.05
2017-07-24T12:25:22.526Z,100525.48
2017-07-24T12:27:30.098Z,100524.34
2017-07-24T12:29:36.210Z,100533.60
2017-07-24T12:31:44.718Z,100531.83
2017-07-24T12:33:51.594Z,100540.49
2017-07-24T12:36:00.844Z,100543.86
2017-07-24T12:38:07.929Z,100539.79
2017-07-24T12:40:17.944Z,100543.20
2017-07-24T12:42:28.825Z,100536.73
2017-07-24T12:44:39.015Z,100537.49
2017-07-24T12:46:50.863Z,100536.14
2017-07-24T12:48:57.537Z,100537.08
2017-07-24T12:51:09.008Z,100531.55
2017-07-24T12:53:20.296Z,100530.58
2017-07-24T12:55:30.380Z,100530.68
2017-07-24T12:57:36.914Z,100532.91
2017-07-24T12:59:44.007Z,100525.91
2017-07-24T13:01:52.809Z,100525.06
2017-07-24T13:04:01.355Z,100529.63
2017-07-24T13:06:12.889Z,100536.73
2017-07-24T13:08:26.605Z,100536.73
2017-07-24T13:10:40.165Z,100539.69
2017-07-24T13:12:51.429Z,100562.34
2017-07-24T13:15:03.020Z,100590.43
2017-07-24T13:17:10.819Z,100588.86
2017-07-24T13:19:22.092Z,100596.51
2017-07-24T13:21:32.448Z,100597.66
2017-07-24T13:23:41.721Z,100612.47
2017-07-24T13:25:50.596Z,100624.30
2017-07-24T13:28:00.227Z,100641.63
2017-07-24T13:30:10.346Z,100642.06
2017-07-24T13:32:17.969Z,100643.00
2017-07-24T13:34:23.918Z,100646.34
2017-07-24T13:36:31.614Z,100645.92
2017-07-24T13:38:43.238Z,100639.79
2017-07-24T13:40:51.707Z,100640.83
2017-07-24T13:43:02.471Z,100641.77
2017-07-24T13:45:09.039Z,100643.05
2017-07-24T13:47:20.620Z,100640.75
2017-07-24T13:49:31.899Z,100633.13
2017-07-24T13:51:43.584Z,100635.23
2017-07-24T13:53:53.735Z,100632.11
2017-07-24T13:56:05.527Z,100625.40
2017-07-24T13:58:10.863Z,100629.67
2017-07-24T14:00:22.979Z,100626.84
2017-07-24T14:02:29.628Z,100629.22
2017-07-24T14:04:41.126Z,100624.86
2017-07-24T14:06:50.933Z,100620.79
2017-07-24T14:09:02.024Z,100620.87
2017-07-24T14:11:12.878Z,100608.26
2017-07-24T14:13:25.830Z,100609.62
2017-07-24T14:15:33.102Z,100605.45
2017-07-24T14:17:40.387Z,100617.94
2017-07-24T14:19:54.113Z,100608.05
2017-07-24T14:22:00.975Z,100612.75
2017-07-24T14:24:09.920Z,100613.89
2017-07-24T14:26:21.892Z,100617.23
2017-07-24T14:28:29.680Z,100609.94
2017-07-24T14:32:56.333Z,100609.20
2017-07-24T14:35:07.553Z,100605.02
2017-07-24T14:37:13.868Z,100610.53
2017-07-24T14:39:21.869Z,100608.14
2017-07-24T14:41:27.719Z,100610.02
2017-07-24T14:43:37.061Z,100614.41
2017-07-24T14:45:47.425Z,100613.47
2017-07-24T14:47:57.759Z,100611.55
2017-07-24T14:50:05.889Z,100620.11
2017-07-24T14:52:17.143Z,100616.05
2017-07-24T14:54:29.751Z,100611.47
2017-07-24T14:56:36.737Z,100608.42
2017-07-24T14:58:46.769Z,100607.90
2017-07-24T15:00:55.240Z,100609.37
2017-07-24T15:03:05.340Z,100607.80
2017-07-24T15:05:14.455Z,100605.70
2017-07-24T15:07:19.894Z,100614.06
2017-07-24T15:09:30.867Z,100608.73
2017-07-24T15:11:37.636Z,100611.69
2017-07-24T15:13:46.768Z,100603.23
2017-07-24T15:15:55.580Z,100606.98
2017-07-24T15:18:02.561Z,100609.59
2017-07-24T15:20:16.011Z,100610.43
2017-07-24T15:22:27.362Z,100610.53
2017-07-24T15:24:37.956Z,100606.26
2017-07-24T15:26:49.718Z,100615.42
2017-07-24T15:29:04.897Z,100601.75
2017-07-24T15:31:11.444Z,100600.48
2017-07-24T15:33:17.602Z,100595.69
2017-07-24T15:35:26.504Z,100592.14
2017-07-24T15:37:36.365Z,100597.56
2017-07-24T15:39:42.623Z,100595.69
2017-07-24T15:41:49.294Z,100597.78
2017-07-24T15:43:58.836Z,100599.67
2017-07-24T15:46:14.688Z,100597.59
2017-07-24T15:48:28.664Z,100594.88
2017-07-24T15:50:43.209Z,100588.84
2017-07-24T15:52:55.001Z,100592.50
2017-07-24T15:55:00.629Z,100590.30
2017-07-24T15:57:06.797Z,100596.67
2017-07-24T15:59:19.202Z,100597.74
2017-07-24T16:01:28.126Z,100594.30
2017-07-24T16:03:34.994Z,100596.92
2017-07-24T16:05:46.036Z,100594.91
2017-07-24T16:07:53.143Z,100598.19
2017-07-24T16:10:00.944Z,100600.48
